sensor_id;sensor_type;location;lat;lon;timestamp;pressure;altitude;pressure_sealevel;temperature;humidity
62703;BME280;66022;50.448;18.122;2023-05-10T20:33:41;99219.84;;;14.73;48.37
62703;BME280;66022;50.448;18.122;2023-05-10T20:37:53;99221.37;;;14.77;48.75
62703;BME280;66022;50.448;18.122;2023-05-10T20:42:05;99222.53;;;14.82;47.13
62703;BME280;66022;50.448;18.122;2023-05-10T20:46:17;99223.94;;;14.89;47.35
62703;BME280;66022;50.448;18.122;2023-05-10T20:50:29;99225.68;;;14.96;48.11
62703;BME280;66022;50.448;18.122;2023-05-10T20:54:41;99227.92;;;15.01;48.05
62703;BME280;66022;50.448;18.122;2023-05-10T20:58:53;99230.06;;;15.07;47.74
62703;BME280;66022;50.448;18.122;2023-05-10T21:03:06;99231.44;;;15.10;47.60
62703;BME280;66022;50.448;18.122;2023-05-10T21:07:17;99233.25;;;15.14;48.19
62703;BME280;66022;50.448;18.122;2023-05-10T21:11:30;99235.10;;;15.16;48.47
62703;BME280;66022;50.448;18.122;2023-05-10T21:15:41;99237.23;;;15.18;47.73
62703;BME280;66022;50.448;18.122;2023-05-10T21:19:53;99239.68;;;15.18;48.12
62703;BME280;66022;50.448;18.122;2023-05-10T21:24:05;99241.78;;;15.14;47.91
62703;BME280;66022;50.448;18.122;2023-05-10T21:28:17;99243.70;;;15.12;49.03
62703;BME280;66022;50.448;18.122;2023-05-10T21:32:29;99246.34;;;15.08;48.42
62703;BME280;66022;50.448;18.122;2023-05-10T21:36:41;99248.75;;;15.05;48.94
62703;BME280;66022;50.448;18.122;2023-05-10T21:40:53;99250.38;;;15.00;49.54
62703;BME280;66022;50.448;18.122;2023-05-10T21:45:05;99252.09;;;14.93;49.59
62703;BME280;66022;50.448;18.122;2023-05-10T21:49:17;99252.98;;;14.86;49.41
62703;BME280;66022;50.448;18.122;2023-05-10T21:53:29;99254.42;;;14.77;50.05
62703;BME280;66022;50.448;18.122;2023-05-10T21:57:41;99254.32;;;14.69;50.64
62703;BME280;66022;50.448;18.122;2023-05-10T22:01:53;99255.52;;;14.58;49.19
62703;BME280;66022;50.448;18.122;2023-05-10T22:06:08;99256.76;;;14.51;49.96
62703;BME280;66022;50.448;18.122;2023-05-10T22:10:17;99257.61;;;14.44;50.43
62703;BME280;66022;50.448;18.122;2023-05-10T22:14:30;99260.25;;;14.35;49.98
62703;BME280;66022;50.448;18.122;2023-05-10T22:18:42;99262.00;;;14.28;50.27
62703;BME280;66022;50.448;18.122;2023-05-10T22:22:54;99263.70;;;14.19;50.82
62703;BME280;66022;50.448;18.122;2023-05-10T22:27:06;99265.05;;;14.13;51.19
62703;BME280;66022;50.448;18.122;2023-05-10T22:31:18;99266.24;;;14.05;51.61
62703;BME280;66022;50.448;18.122;2023-05-10T22:35:30;99268.07;;;13.97;51.28
62703;BME280;66022;50.448;18.122;2023-05-10T22:39:45;99270.11;;;13.89;51.54
62703;BME280;66022;50.448;18.122;2023-05-10T22:43:54;99271.08;;;13.81;51.55
62703;BME280;66022;50.448;18.122;2023-05-10T22:48:06;99272.19;;;13.75;51.71
62703;BME280;66022;50.448;18.122;2023-05-10T22:52:18;99273.00;;;13.67;52.12
62703;BME280;66022;50.448;18.122;2023-05-10T22:56:30;99275.07;;;13.63;52.06
62703;BME280;66022;50.448;18.122;2023-05-10T23:00:42;99276.90;;;13.59;52.31
62703;BME280;66022;50.448;18.122;2023-05-10T23:04:54;99279.22;;;13.53;52.13
62703;BME280;66022;50.448;18.122;2023-05-10T23:09:06;99281.15;;;13.48;52.08
62703;BME280;66022;50.448;18.122;2023-05-10T23:13:18;99284.04;;;13.43;51.57
62703;BME280;66022;50.448;18.122;2023-05-10T23:17:30;99286.63;;;13.38;51.93
62703;BME280;66022;50.448;18.122;2023-05-10T23:21:42;99288.15;;;13.31;52.40
62703;BME280;66022;50.448;18.122;2023-05-10T23:25:54;99290.08;;;13.25;52.40
62703;BME280;66022;50.448;18.122;2023-05-10T23:30:06;99290.75;;;13.18;51.59
62703;BME280;66022;50.448;18.122;2023-05-10T23:34:18;99290.94;;;13.08;52.10
62703;BME280;66022;50.448;18.122;2023-05-10T23:38:30;99291.58;;;13.04;52.05
62703;BME280;66022;50.448;18.122;2023-05-10T23:42:42;99291.64;;;12.97;52.95
62703;BME280;66022;50.448;18.122;2023-05-10T23:46:54;99291.28;;;12.92;52.75
62703;BME280;66022;50.448;18.122;2023-05-10T23:51:06;99291.77;;;12.87;52.66
62703;BME280;66022;50.448;18.122;2023-05-10T23:55:18;99291.88;;;12.81;52.51
62703;BME280;66022;50.448;18.122;2023-05-10T23:59:30;99291.86;;;12.77;52.73
